Time;durP1;ratioP1;P1;durP2;ratioP2;P2;SDS_P1;SDS_P2;PMS_P1;PMS_P2;Temp;Humidity;BMP_temperature;BMP_pressure;BME280_temperature;BME280_humidity;BME280_pressure;Samples;Min_cycle;Max_cycle;Signal;HPM_P1;HPM_P2
2022/03/19 00:00:17;;;;;;;109.43;60.37;;;4.20;99.60;;;2.95;83.90;99437.47;5012644;28;20421;-75
2022/03/19 00:02:43;;;;;;;104.93;59.90;;;4.30;99.70;;;3.01;83.91;99440.28;5013031;28;20795;-75
2022/03/19 00:05:11;;;;;;;118.32;63.42;;;4.40;99.80;;;3.12;83.89;99444.47;5012329;28;20421;-75
2022/03/19 00:07:40;;;;;;;111.68;60.72;;;4.40;99.80;;;3.13;83.69;99448.72;5012471;28;20420;-74
2022/03/19 00:10:08;;;;;;;111.95;62.42;;;4.50;99.70;;;3.24;83.66;99450.25;5012331;28;20405;-75
2022/03/19 00:12:35;;;;;;;106.80;59.33;;;4.50;99.60;;;3.23;83.50;99446.84;5013013;28;20397;-75
2022/03/19 00:15:01;;;;;;;109.32;61.47;;;4.50;99.50;;;3.25;83.26;99447.50;5012869;28;20409;-75
2022/03/19 00:17:27;;;;;;;99.75;57.35;;;4.60;99.50;;;3.26;83.16;99436.06;5012689;28;20408;-74
2022/03/19 00:19:53;;;;;;;104.10;59.85;;;4.60;99.40;;;3.31;83.19;99448.66;5012415;28;20437;-74
2022/03/19 00:22:20;;;;;;;103.10;58.80;;;4.60;99.30;;;3.30;82.96;99449.66;5012233;28;20503;-75
2022/03/19 00:24:46;;;;;;;108.78;60.95;;;4.60;99.20;;;3.29;82.83;99443.63;5012616;28;20435;-75
2022/03/19 00:27:12;;;;;;;103.47;57.93;;;4.60;99.20;;;3.29;82.79;99443.63;5012698;28;20439;-74
2022/03/19 00:29:38;;;;;;;100.43;57.15;;;4.60;99.10;;;3.26;82.67;99438.66;5012501;28;20503;-75
2022/03/19 00:32:04;;;;;;;100.90;57.13;;;4.60;99.10;;;3.25;82.73;99438.81;5011879;28;20504;-76
2022/03/19 00:34:32;;;;;;;95.40;55.50;;;4.60;99.10;;;3.25;82.60;99444.06;5012216;28;20774;-75
2022/03/19 00:36:58;;;;;;;103.35;56.83;;;4.60;99.00;;;3.21;82.60;99435.72;5012439;28;20400;-75
2022/03/19 00:39:25;;;;;;;92.88;53.67;;;4.50;99.00;;;3.18;82.65;99445.66;5011592;28;20928;-75
2022/03/19 00:41:54;;;;;;;94.95;55.00;;;4.50;99.00;;;3.17;82.68;99441.38;5011521;28;20462;-75
2022/03/19 00:44:23;;;;;;;100.85;57.65;;;4.50;99.00;;;3.18;82.70;99438.63;5012002;28;20416;-75
2022/03/19 00:46:50;;;;;;;91.85;53.78;;;4.50;99.10;;;3.17;82.84;99436.97;5012215;28;20443;-75
2022/03/19 00:49:16;;;;;;;100.88;57.63;;;4.50;99.10;;;3.20;82.87;99434.06;5012195;28;20415;-75
2022/03/19 00:51:42;;;;;;;96.10;54.78;;;4.50;99.10;;;3.15;82.71;99431.09;5011748;28;20444;-75
2022/03/19 00:54:10;;;;;;;113.57;61.50;;;4.50;99.10;;;3.24;82.63;99426.72;5012135;28;20405;-75
2022/03/19 00:56:37;;;;;;;96.20;56.78;;;4.50;99.10;;;3.20;82.53;99420.97;5012018;28;20471;-75
2022/03/19 00:59:03;;;;;;;93.10;54.35;;;4.50;99.00;;;3.16;82.45;99429.31;5011939;28;20414;-75
2022/03/19 01:01:30;;;;;;;104.40;59.90;;;4.50;99.00;;;3.16;82.29;99419.63;5011587;28;20894;-74
2022/03/19 01:03:56;;;;;;;94.40;55.57;;;4.50;99.00;;;3.15;82.60;99427.66;5010705;28;20789;-75
2022/03/19 01:06:22;;;;;;;109.65;61.00;;;4.50;99.00;;;3.16;82.39;99421.44;5025236;23;20412;-82
2022/03/19 01:08:48;;;;;;;96.00;57.75;;;4.50;99.00;;;3.12;82.63;99415.69;5012161;28;20404;-83
2022/03/19 01:11:14;;;;;;;93.93;55.78;;;4.40;98.90;;;3.12;82.45;99415.69;5011202;28;20412;-82
2022/03/19 01:13:41;;;;;;;91.25;53.80;;;4.40;98.90;;;3.10;82.30;99423.69;5011688;28;20431;-82
2022/03/19 01:16:07;;;;;;;101.00;56.83;;;4.40;98.90;;;3.09;82.49;99413.38;5011066;28;20415;-82
2022/03/19 01:18:33;;;;;;;102.55;58.22;;;4.40;98.90;;;3.09;82.52;99416.81;4990724;28;20799;-82
2022/03/19 01:20:59;;;;;;;97.57;56.30;;;4.40;98.90;;;3.13;82.44;99413.91;4991876;28;20734;-83
2022/03/19 01:23:26;;;;;;;94.40;55.67;;;4.40;98.90;;;3.10;82.23;99421.06;4992334;28;20440;-82
2022/03/19 01:25:52;;;;;;;96.97;55.15;;;4.40;98.90;;;3.11;82.15;99414.88;4992481;28;20414;-83
2022/03/19 01:28:18;;;;;;;93.35;53.15;;;4.40;98.80;;;3.07;82.11;99417.94;4992211;28;20398;-82
2022/03/19 01:30:45;;;;;;;90.75;52.90;;;4.40;98.70;;;3.06;82.15;99413.69;4990392;28;20905;-83
2022/03/19 01:33:11;;;;;;;92.45;54.60;;;4.40;98.70;;;3.05;82.04;99414.66;4992283;28;20406;-83
2022/03/19 01:35:37;;;;;;;86.00;51.55;;;4.40;98.70;;;3.02;81.92;99414.97;5007267;28;20430;-83
2022/03/19 01:38:04;;;;;;;87.80;50.83;;;4.30;98.60;;;2.97;81.99;99412.00;4992260;28;20951;-83
2022/03/19 01:40:31;;;;;;;92.93;54.90;;;4.30;98.60;;;3.00;81.83;99417.75;4991836;28;20482;-83
2022/03/19 01:42:57;;;;;;;94.70;54.95;;;4.30;98.60;;;3.01;81.94;99414.13;4992199;28;20514;-83
2022/03/19 01:45:24;;;;;;;86.47;51.78;;;4.30;98.60;;;3.01;81.80;99415.94;4991346;28;20410;-82
2022/03/19 01:47:53;;;;;;;87.15;50.63;;;4.30;98.60;;;2.99;81.74;99413.50;4991004;28;20421;-83
2022/03/19 01:50:22;;;;;;;88.80;51.10;;;4.30;98.50;;;2.97;81.54;99401.53;4991232;28;20420;-82
2022/03/19 01:52:48;;;;;;;96.68;55.17;;;4.30;98.50;;;3.00;81.48;99409.06;4991586;28;20429;-82
2022/03/19 01:55:19;;;;;;;86.10;50.33;;;4.30;98.40;;;2.96;81.63;99405.94;4991960;28;20410;-82
2022/03/19 01:57:47;;;;;;;94.53;54.63;;;4.30;98.50;;;2.97;81.56;99407.56;4991885;28;20403;-83
2022/03/19 02:00:17;;;;;;;88.80;52.90;;;4.30;98.40;;;2.96;81.59;99405.09;4991462;28;20407;-83
2022/03/19 02:02:43;;;;;;;92.07;52.00;;;4.30;98.40;;;2.93;81.47;99387.91;4991755;28;20505;-82
2022/03/19 02:05:15;;;;;;;88.25;50.80;;;4.20;98.30;;;2.94;81.30;99396.59;5007084;28;20422;-83
2022/03/19 02:07:41;;;;;;;87.32;51.15;;;4.20;98.20;;;2.92;80.98;99401.16;5006500;28;20422;-82
2022/03/19 02:10:09;;;;;;;91.45;52.53;;;4.20;98.20;;;2.92;81.15;99398.56;4991275;28;20512;-82
2022/03/19 02:12:35;;;;;;;95.95;54.25;;;4.20;98.20;;;2.91;81.12;99402.13;4991114;28;20407;-83
2022/03/19 02:15:01;;;;;;;94.30;55.17;;;4.20;98.20;;;2.95;81.07;99398.22;4991569;28;20441;-83
2022/03/19 02:17:27;;;;;;;89.60;51.58;;;4.20;98.20;;;2.92;81.12;99396.75;4991393;28;20854;-82
2022/03/19 02:19:55;;;;;;;84.03;49.13;;;4.20;98.20;;;2.90;80.89;99397.88;4991199;28;20409;-83
2022/03/19 02:22:26;;;;;;;81.67;48.20;;;4.20;98.20;;;2.87;80.97;99398.16;4990986;28;20935;-83
2022/03/19 02:27:40;;;;;;;89.13;51.73;;;4.20;98.10;;;2.86;80.89;99394.72;4991654;28;20509;-82
2022/03/19 02:30:10;;;;;;;89.75;52.83;;;4.20;98.00;;;2.87;80.63;99395.56;4990636;28;20402;-82
2022/03/19 02:32:38;;;;;;;79.95;48.88;;;4.20;98.00;;;2.84;80.80;99390.66;4991670;28;20406;-83
2022/03/19 02:35:05;;;;;;;87.63;51.17;;;4.10;98.00;;;2.85;80.76;99389.69;5006801;28;20422;-82
2022/03/19 02:37:38;;;;;;;87.72;50.75;;;4.10;98.00;;;2.82;80.67;99392.59;4991595;28;20402;-82
2022/03/19 02:40:09;;;;;;;93.85;53.05;;;4.10;98.00;;;2.83;80.62;99381.97;4990422;28;20411;-82
2022/03/19 02:42:35;;;;;;;87.88;50.05;;;4.10;97.90;;;2.82;80.75;99380.34;5026176;28;20462;-82
2022/03/19 02:45:01;;;;;;;89.10;51.85;;;4.10;97.90;;;2.83;80.61;99378.53;5004560;28;20896;-81
2022/03/19 02:47:26;;;;;;;78.00;46.30;;;4.10;97.80;;;2.82;80.50;99374.28;4998658;28;20429;-81
2022/03/19 02:49:52;;;;;;;80.93;49.17;;;4.10;97.80;;;2.80;80.50;99384.06;4999466;28;20410;-81
2022/03/19 02:52:18;;;;;;;89.13;49.95;;;4.10;97.80;;;2.81;80.42;99377.88;4995180;28;20418;-81
2022/03/19 02:54:45;;;;;;;82.53;48.67;;;4.10;97.70;;;2.78;80.29;99383.41;4992112;28;20399;-82
2022/03/19 02:57:12;;;;;;;84.40;48.42;;;4.10;97.70;;;2.77;80.38;99382.59;4994122;28;20903;-82
2022/03/19 02:59:38;;;;;;;77.28;47.03;;;4.10;97.60;;;2.74;80.23;99377.66;4994864;28;20410;-82
2022/03/19 03:02:05;;;;;;;88.85;50.35;;;4.00;97.60;;;2.78;79.95;99373.78;4994669;28;20414;-83
2022/03/19 03:04:32;;;;;;;80.40;48.30;;;4.10;97.50;;;2.77;79.85;99382.59;4993976;28;20414;-82
2022/03/19 03:07:01;;;;;;;80.10;48.05;;;4.10;97.50;;;2.78;79.61;99372.97;4994385;28;20476;-82
2022/03/19 03:09:29;;;;;;;79.40;47.05;;;4.10;97.40;;;2.74;79.54;99367.19;4994571;28;20492;-82
2022/03/19 03:11:56;;;;;;;70.85;44.35;;;4.00;97.30;;;2.68;79.59;99373.03;4994417;28;20477;-81
2022/03/19 03:14:23;;;;;;;80.88;47.83;;;4.00;97.30;;;2.68;79.70;99371.25;4994417;28;20401;-82
2022/03/19 03:16:52;;;;;;;76.27;44.27;;;4.00;97.30;;;2.64;79.70;99375.13;4994319;28;20404;-82
2022/03/19 03:19:19;;;;;;;76.78;46.05;;;3.90;97.40;;;2.62;79.63;99373.66;4993098;28;20414;-82
2022/03/19 03:21:46;;;;;;;76.90;45.05;;;3.90;97.40;;;2.57;79.66;99368.03;4994259;28;20428;-82
2022/03/19 03:24:14;;;;;;;70.57;43.40;;;3.90;97.30;;;2.50;79.71;99367.00;4994655;28;20445;-82
2022/03/19 03:26:41;;;;;;;73.03;44.97;;;3.80;97.30;;;2.45;79.86;99377.09;4994361;28;20889;-82
2022/03/19 03:29:07;;;;;;;75.13;45.20;;;3.80;97.40;;;2.41;80.03;99368.72;4994373;28;20403;-83
2022/03/19 03:31:35;;;;;;;77.22;45.60;;;3.70;97.50;;;2.38;80.06;99366.44;4993861;28;20902;-84
2022/03/19 03:34:02;;;;;;;79.25;46.80;;;3.70;97.50;;;2.41;80.07;99370.50;4994311;28;20399;-84
2022/03/19 03:36:28;;;;;;;77.15;47.08;;;3.70;97.50;;;2.36;79.72;99368.38;4993529;28;20411;-83
2022/03/19 03:38:54;;;;;;;85.47;49.90;;;3.70;97.30;;;2.36;79.46;99368.38;4993746;28;20414;-83
2022/03/19 03:41:20;;;;;;;85.20;49.47;;;3.60;97.20;;;2.34;79.57;99371.13;4992268;28;20788;-83
2022/03/19 03:43:46;;;;;;;73.20;44.10;;;3.60;97.20;;;2.18;79.40;99372.78;4993911;28;20410;-81
2022/03/19 03:46:12;;;;;;;77.93;45.72;;;3.50;97.20;;;2.12;79.37;99371.56;4994199;28;20516;-83
2022/03/19 03:48:39;;;;;;;72.00;42.08;;;3.50;97.20;;;1.99;79.73;99372.91;4994153;28;20406;-83
2022/03/19 03:51:07;;;;;;;89.80;51.28;;;3.30;97.20;;;2.01;79.83;99369.19;4993640;28;20780;-82
2022/03/19 03:53:35;;;;;;;86.15;49.35;;;3.30;97.50;;;1.92;79.96;99362.22;4993861;28;20805;-83
2022/03/19 03:56:05;;;;;;;82.78;47.38;;;3.30;97.50;;;1.78;80.21;99360.94;4993943;28;20411;-82
2022/03/19 03:58:32;;;;;;;101.10;52.72;;;3.20;97.50;;;1.78;80.57;99365.34;4993792;28;20410;-82
2022/03/19 04:00:58;;;;;;;82.60;48.33;;;3.00;97.90;;;1.67;80.86;99357.69;4993341;28;20441;-82
2022/03/19 04:03:25;;;;;;;72.35;42.90;;;3.00;97.90;;;1.54;81.25;99351.03;4993649;28;20477;-83
2022/03/19 04:05:52;;;;;;;70.78;42.25;;;2.90;98.00;;;1.49;81.03;99352.47;4993671;28;20481;-83
2022/03/19 04:08:18;;;;;;;83.45;48.05;;;2.90;98.00;;;1.53;81.48;99348.56;4992346;28;20422;-82
2022/03/19 04:10:44;;;;;;;85.43;46.60;;;2.90;98.20;;;1.46;81.34;99355.34;4992177;28;20410;-83
2022/03/19 04:13:11;;;;;;;99.50;53.35;;;2.90;98.20;;;1.50;81.55;99359.31;4993021;28;20414;-82
2022/03/19 04:15:37;;;;;;;81.82;46.60;;;2.80;98.30;;;1.32;81.44;99356.66;4993521;28;20405;-83
2022/03/19 04:18:03;;;;;;;89.43;50.17;;;2.70;98.20;;;1.36;81.57;99347.56;4993109;28;20403;-82
2022/03/19 04:20:29;;;;;;;73.65;43.65;;;2.70;98.40;;;1.25;81.63;99354.75;4992933;28;20408;-82
2022/03/19 04:22:56;;;;;;;86.68;49.70;;;2.70;98.30;;;1.33;82.00;99347.84;4992937;28;20414;-82
2022/03/19 04:25:25;;;;;;;77.15;44.40;;;2.70;98.60;;;1.21;82.21;99346.38;4992936;28;20497;-83
2022/03/19 04:27:53;;;;;;;85.18;48.50;;;2.60;98.50;;;1.29;82.13;99345.66;4993080;28;20403;-83
2022/03/19 04:30:22;;;;;;;100.45;52.38;;;2.70;98.70;;;1.29;81.96;99343.06;4992811;28;20410;-83
2022/03/19 04:32:50;;;;;;;81.67;47.27;;;2.60;98.70;;;1.14;82.25;99346.13;4993127;28;20493;-83
2022/03/19 04:38:07;;;;;;;78.85;45.53;;;2.50;98.80;;;1.04;82.59;99355.78;4992940;28;20752;-83
2022/03/19 04:40:35;;;;;;;80.72;45.17;;;2.50;98.90;;;1.01;82.74;99350.03;4992416;28;20419;-83
2022/03/19 04:43:01;;;;;;;78.40;44.95;;;2.40;98.90;;;0.99;82.96;99349.34;4991349;28;20420;-83
2022/03/19 04:45:28;;;;;;;82.40;47.03;;;2.40;99.00;;;1.01;82.80;99347.41;4992725;28;20445;-82
2022/03/19 04:47:54;;;;;;;91.47;51.50;;;2.40;99.00;;;1.06;83.07;99345.19;4992538;28;20749;-83
2022/03/19 04:50:20;;;;;;;97.93;53.22;;;2.50;99.10;;;1.13;82.99;99346.28;4992337;28;20403;-82
2022/03/19 04:52:48;;;;;;;90.72;52.55;;;2.50;99.20;;;1.16;83.13;99346.00;4992714;28;20406;-81
2022/03/19 04:55:16;;;;;;;91.82;52.40;;;2.50;99.30;;;1.21;82.95;99346.38;4992695;28;20495;-82
2022/03/19 04:57:42;;;;;;;91.38;51.22;;;2.50;99.30;;;1.17;82.88;99347.66;4992452;28;20418;-82
2022/03/19 05:00:12;;;;;;;88.65;50.58;;;2.50;99.20;;;1.09;82.95;99344.94;4992397;28;20410;-83
2022/03/19 05:02:39;;;;;;;84.63;47.50;;;2.50;99.10;;;1.03;82.75;99343.72;4992733;28;20402;-83
2022/03/19 05:05:06;;;;;;;88.18;49.50;;;2.50;99.00;;;1.05;82.80;99349.59;4992438;28;20421;-83
2022/03/19 05:07:35;;;;;;;86.57;48.93;;;2.40;99.00;;;1.00;82.83;99341.38;4992295;28;20466;-83
2022/03/19 05:12:47;;;;;;;87.00;47.22;;;2.40;99.10;;;0.85;82.92;99342.78;4992276;28;20413;-83
2022/03/19 05:15:15;;;;;;;73.18;42.65;;;2.30;99.10;;;0.77;83.02;99334.84;4992397;28;20394;-83
2022/03/19 05:17:41;;;;;;;81.90;44.83;;;2.20;99.10;;;0.77;83.15;99327.03;4991317;28;20414;-83
2022/03/19 05:20:10;;;;;;;77.68;44.35;;;2.20;99.20;;;0.72;83.52;99324.03;4991527;28;20954;-83
2022/03/19 05:22:36;;;;;;;70.68;41.20;;;2.10;99.30;;;0.67;83.54;99331.47;4991937;28;20502;-83
2022/03/19 05:25:04;;;;;;;85.97;47.87;;;2.10;99.30;;;0.74;83.61;99335.16;4991868;28;20418;-83
2022/03/19 05:27:31;;;;;;;96.82;52.00;;;2.10;99.40;;;0.76;83.57;99330.59;4992153;28;20403;-83
2022/03/19 05:29:58;;;;;;;93.25;51.13;;;2.10;99.60;;;0.74;83.69;99330.78;4990693;28;20796;-83
2022/03/19 05:32:24;;;;;;;85.65;47.88;;;2.20;99.60;;;0.72;83.66;99340.50;5006735;28;20888;-83
2022/03/19 05:34:51;;;;;;;92.07;49.17;;;2.10;99.60;;;0.71;83.62;99325.81;4992080;28;20439;-83
2022/03/19 05:37:17;;;;;;;97.05;51.50;;;2.10;99.60;;;0.80;83.38;99334.59;4992004;28;20407;-82
2022/03/19 05:39:43;;;;;;;90.07;50.92;;;2.10;99.60;;;0.76;83.39;99328.81;4991853;28;20416;-83
2022/03/19 05:42:11;;;;;;;95.25;51.63;;;2.10;99.60;;;0.77;83.50;99322.66;4991465;28;20394;-83
2022/03/19 05:44:38;;;;;;;92.30;51.03;;;2.10;99.60;;;0.77;83.52;99324.44;4991913;28;20426;-81
2022/03/19 05:47:05;;;;;;;88.15;48.90;;;2.20;99.60;;;0.73;83.77;99321.31;4992027;28;20414;-83
2022/03/19 05:49:32;;;;;;;94.47;52.85;;;2.10;99.60;;;0.79;83.83;99319.91;4992162;28;20419;-83
2022/03/19 05:51:58;;;;;;;83.18;46.92;;;2.20;99.70;;;0.79;84.21;99325.13;4991741;28;20495;-82
2022/03/19 05:54:25;;;;;;;76.78;44.15;;;2.20;99.90;;;0.82;84.61;99324.84;4991976;28;20914;-83
2022/03/19 05:56:53;;;;;;;87.18;49.70;;;2.20;99.90;;;0.93;84.32;99326.44;4991919;28;20892;-82
2022/03/19 05:59:19;;;;;;;79.90;45.28;;;2.30;99.90;;;0.90;84.24;99327.56;4992478;28;20442;-83
2022/03/19 06:01:45;;;;;;;71.93;41.28;;;2.30;99.90;;;0.91;84.32;99330.97;4991277;28;20407;-82
2022/03/19 06:04:13;;;;;;;82.25;45.67;;;2.30;99.90;;;0.95;84.38;99332.34;4992321;28;20415;-84
2022/03/19 06:06:39;;;;;;;81.20;46.35;;;2.30;99.80;;;1.00;84.23;99323.13;4992199;28;20505;-83
2022/03/19 06:09:05;;;;;;;81.45;47.25;;;2.40;99.80;;;1.05;84.26;99326.13;4991919;28;20542;-83
2022/03/19 06:11:31;;;;;;;78.45;45.45;;;2.40;99.90;;;1.12;83.81;99332.44;4994271;28;20416;-83
2022/03/19 06:13:57;;;;;;;90.53;48.70;;;2.50;99.70;;;1.23;84.00;99322.75;4995371;28;20407;-83
2022/03/19 06:16:23;;;;;;;86.85;49.20;;;2.50;99.70;;;1.28;83.06;99326.56;4994183;28;20406;-84
2022/03/19 06:18:52;;;;;;;90.50;49.83;;;2.60;99.40;;;1.33;82.95;99334.00;4996381;28;20849;-82
2022/03/19 06:21:22;;;;;;;81.82;45.47;;;2.70;99.30;;;1.36;83.08;99329.28;4999376;28;20406;-83
2022/03/19 06:23:49;;;;;;;84.73;47.17;;;2.70;99.30;;;1.44;82.59;99329.38;4996613;28;20414;-84
2022/03/19 06:26:16;;;;;;;79.72;45.70;;;2.70;99.20;;;1.52;82.20;99329.47;4994443;28;20407;-82
2022/03/19 06:28:42;;;;;;;68.40;40.42;;;2.80;98.90;;;1.55;82.43;99325.78;4998387;28;20418;-82
2022/03/19 06:31:08;;;;;;;79.90;45.00;;;2.90;99.10;;;1.61;82.41;99326.97;4996579;28;20437;-83
2022/03/19 06:33:34;;;;;;;78.57;45.15;;;2.90;99.00;;;1.70;81.98;99332.13;4990751;28;20965;-84
2022/03/19 06:38:46;;;;;;;77.50;43.85;;;3.10;98.70;;;1.86;81.34;99334.94;4991031;28;20469;-84
2022/03/19 06:41:12;;;;;;;81.03;47.08;;;3.20;98.50;;;1.99;80.29;99331.13;4982614;28;20891;-84
2022/03/19 06:43:38;;;;;;;71.93;41.95;;;3.30;97.80;;;2.05;80.36;99327.91;4991126;28;20415;-84
2022/03/19 06:46:05;;;;;;;59.93;35.90;;;3.30;97.80;;;2.07;80.04;99326.78;4991125;28;20879;-84
2022/03/19 06:48:31;;;;;;;64.22;37.58;;;3.40;97.70;;;2.12;79.78;99331.56;4990979;28;20414;-83
2022/03/19 06:50:57;;;;;;;63.65;37.80;;;3.40;97.50;;;2.16;79.80;99328.50;4990688;28;20398;-83
2022/03/19 06:53:24;;;;;;;64.65;38.50;;;3.40;97.60;;;2.20;79.53;99326.41;4990890;28;20808;-84
2022/03/19 06:55:52;;;;;;;70.30;41.22;;;3.50;97.50;;;2.27;78.73;99323.03;4991138;28;20469;-83
2022/03/19 06:58:19;;;;;;;63.05;39.22;;;3.50;97.00;;;2.34;79.22;99326.69;4990600;28;20473;-83
2022/03/19 07:00:46;;;;;;;57.67;35.17;;;3.60;97.20;;;2.38;78.82;99322.00;4990417;28;20498;-84
2022/03/19 07:03:12;;;;;;;56.50;34.88;;;3.60;97.10;;;2.43;78.98;99332.81;4990717;28;20406;-84
2022/03/19 07:05:38;;;;;;;59.05;36.05;;;3.60;97.00;;;2.46;78.85;99332.53;4990853;28;20402;-84
2022/03/19 07:08:08;;;;;;;56.58;34.90;;;3.70;97.00;;;2.50;78.84;99330.41;5015369;22;20437;-72
2022/03/19 07:10:34;;;;;;;66.32;38.95;;;3.70;97.00;;;2.54;78.73;99324.75;5008940;28;20411;-72
2022/03/19 07:13:02;;;;;;;59.22;35.40;;;3.80;97.00;;;2.60;78.80;99320.69;5010231;28;20487;-72
2022/03/19 07:15:29;;;;;;;57.40;34.35;;;3.80;97.10;;;2.65;78.80;99316.63;5009931;28;20409;-72
2022/03/19 07:17:55;;;;;;;60.27;34.87;;;3.90;97.00;;;2.71;78.56;99312.59;5009670;28;20451;-72
2022/03/19 07:20:22;;;;;;;60.93;36.37;;;3.90;96.90;;;2.78;78.46;99318.03;5009343;28;20504;-73
2022/03/19 07:22:51;;;;;;;65.83;37.57;;;4.00;96.80;;;2.85;78.20;99321.69;5010019;28;20405;-72
2022/03/19 07:25:19;;;;;;;63.50;37.05;;;4.00;96.70;;;2.92;77.96;99323.53;5009947;28;20564;-73
2022/03/19 07:27:46;;;;;;;60.05;37.40;;;4.10;96.50;;;2.98;77.63;99315.06;5009966;28;20931;-72
2022/03/19 07:30:14;;;;;;;64.68;37.40;;;4.20;96.50;;;3.07;77.41;99315.91;5009598;28;20809;-73
2022/03/19 07:32:40;;;;;;;60.13;35.50;;;4.20;96.40;;;3.14;77.45;99316.94;5009980;28;20408;-74
2022/03/19 07:35:08;;;;;;;55.15;34.30;;;4.30;96.30;;;3.22;77.24;99311.75;5009932;28;20419;-72
2022/03/19 07:37:34;;;;;;;65.45;37.10;;;4.40;96.30;;;3.29;77.02;99310.13;5009779;28;20413;-73
2022/03/19 07:40:00;;;;;;;58.05;34.95;;;4.50;96.10;;;3.37;76.87;99309.34;5009026;28;20417;-73
2022/03/19 07:42:26;;;;;;;58.90;34.72;;;4.50;96.00;;;3.45;76.66;99312.00;5009281;28;20404;-73
2022/03/19 07:44:53;;;;;;;65.40;37.92;;;4.60;95.90;;;3.53;75.74;99312.03;5013162;28;20425;-73
2022/03/19 07:47:20;;;;;;;56.53;33.53;;;4.70;95.30;;;3.64;75.92;99310.91;5013126;28;20401;-73
2022/03/19 07:49:47;;;;;;;54.73;34.00;;;4.80;95.80;;;3.71;75.37;99307.47;5013152;28;20400;-73
2022/03/19 07:52:13;;;;;;;57.38;32.50;;;4.90;95.10;;;3.79;75.41;99302.25;5012696;28;20423;-73
2022/03/19 07:54:39;;;;;;;52.78;32.13;;;5.00;95.10;;;3.88;75.13;99305.72;5013183;28;20396;-72
2022/03/19 07:57:06;;;;;;;53.53;32.60;;;5.00;95.00;;;3.96;74.86;99303.13;5013080;28;20412;-73
2022/03/19 07:59:32;;;;;;;53.30;32.72;;;5.10;94.80;;;4.05;74.38;99298.72;5013053;28;20491;-72
2022/03/19 08:01:58;;;;;;;51.55;30.85;;;5.20;94.60;;;4.14;74.23;99293.28;5012359;28;20448;-74
2022/03/19 08:04:25;;;;;;;52.85;30.95;;;5.30;94.50;;;4.24;73.80;99290.50;5011473;28;20760;-73
2022/03/19 08:06:53;;;;;;;52.35;31.50;;;5.40;94.30;;;4.33;73.52;99299.19;5012863;28;20428;-72
2022/03/19 08:09:20;;;;;;;61.63;33.53;;;5.40;94.00;;;4.42;71.91;99292.97;5012909;28;20887;-73
2022/03/19 08:11:49;;;;;;;46.35;29.60;;;5.60;92.90;;;4.49;72.06;99289.53;5012433;28;20405;-73
2022/03/19 08:14:16;;;;;;;46.22;28.23;;;5.60;93.20;;;4.57;71.83;99293.94;5012522;28;20419;-73
2022/03/19 08:16:43;;;;;;;47.72;28.15;;;5.70;92.90;;;4.65;71.50;99294.75;5012549;28;20411;-73
2022/03/19 08:19:11;;;;;;;46.92;28.70;;;5.80;92.90;;;4.73;70.76;99290.50;5012513;28;20495;-73
2022/03/19 08:21:38;;;;;;;47.20;28.77;;;5.80;92.30;;;4.80;69.43;99292.28;5012294;28;20817;-72
2022/03/19 08:24:05;;;;;;;45.80;27.90;;;5.90;91.50;;;4.89;69.11;99286.00;5012438;28;20786;-72
2022/03/19 08:26:31;;;;;;;48.88;29.23;;;6.00;91.20;;;4.94;67.75;99288.13;5012527;28;20405;-73
2022/03/19 08:28:58;;;;;;;46.45;27.42;;;6.00;90.20;;;5.03;67.74;99285.31;5012479;28;20519;-73
2022/03/19 08:31:24;;;;;;;43.55;26.20;;;6.10;90.30;;;5.07;66.62;99273.50;5012142;28;20739;-73
2022/03/19 08:33:50;;;;;;;50.25;29.10;;;6.20;88.90;;;5.13;65.82;99273.78;5012413;28;20427;-73
2022/03/19 08:36:16;;;;;;;49.00;28.73;;;6.20;87.40;;;5.20;65.19;99272.94;5012358;28;20855;-72
2022/03/19 08:41:28;;;;;;;46.05;25.52;;;6.40;85.20;;;5.37;64.46;99266.63;5011966;28;20454;-73
2022/03/19 08:43:54;;;;;;;42.72;25.27;;;6.40;85.70;;;5.45;64.26;99258.72;5012300;28;20412;-73
2022/03/19 08:46:20;;;;;;;43.17;25.48;;;6.50;85.30;;;5.53;63.87;99260.47;5011750;28;20501;-73
2022/03/19 08:48:46;;;;;;;41.67;25.53;;;6.60;84.80;;;5.61;64.08;99252.56;5011884;28;20417;-73
2022/03/19 08:53:59;;;;;;;40.53;24.15;;;6.80;84.10;;;5.78;63.30;99250.66;5009414;28;20940;-73
2022/03/19 08:56:25;;;;;;;39.05;23.95;;;6.80;83.60;;;5.87;62.90;99248.75;5011966;28;20441;-73
2022/03/19 08:58:51;;;;;;;37.67;22.77;;;6.90;83.40;;;5.97;62.82;99254.66;5011693;28;20408;-73
2022/03/19 09:01:18;;;;;;;41.95;24.90;;;7.00;83.10;;;6.03;62.35;99256.56;5011405;28;20432;-74
2022/03/19 09:03:44;;;;;;;36.30;22.92;;;7.10;82.30;;;6.11;62.18;99243.34;5011757;28;20443;-73
2022/03/19 09:06:14;;;;;;;41.55;24.42;;;7.20;81.90;;;6.18;61.66;99242.47;5011839;28;20454;-73
2022/03/19 09:08:40;;;;;;;44.42;25.60;;;7.20;81.10;;;6.21;60.42;99251.81;5011655;28;20438;-74
2022/03/19 09:11:07;;;;;;;39.67;23.35;;;7.30;78.90;;;6.27;59.82;99237.16;5011193;28;20478;-73
2022/03/19 09:13:36;;;;;;;39.33;22.88;;;7.30;78.30;;;6.34;59.84;99233.63;5011755;28;20395;-73
2022/03/19 09:16:03;;;;;;;40.88;23.90;;;7.40;78.20;;;6.43;59.67;99231.75;5011765;28;20921;-73
2022/03/19 09:18:28;;;;;;;40.75;24.25;;;7.40;78.00;;;6.49;58.73;99234.47;5011500;28;20565;-73
2022/03/19 09:20:54;;;;;;;40.13;23.80;;;7.50;76.60;;;6.54;58.12;99226.06;5010947;28;20416;-73
2022/03/19 09:23:20;;;;;;;40.30;24.30;;;7.60;75.70;;;6.62;58.41;99236.47;5011432;28;20401;-73
2022/03/19 09:25:46;;;;;;;40.63;24.40;;;7.60;75.90;;;6.69;57.77;99231.31;5011602;28;20404;-73
2022/03/19 09:28:13;;;;;;;41.88;24.48;;;7.70;75.70;;;6.74;57.41;99239.50;5010159;28;20463;-73
2022/03/19 09:30:39;;;;;;;40.13;25.08;;;7.80;74.40;;;6.80;57.00;99236.13;5010352;28;20426;-73
2022/03/19 09:33:06;;;;;;;38.23;23.97;;;7.80;73.90;;;6.85;57.02;99231.13;5011007;28;20470;-73
2022/03/19 09:35:32;;;;;;;38.80;24.02;;;7.90;73.60;;;6.92;57.14;99230.22;5011124;28;20400;-73
2022/03/19 09:37:59;;;;;;;43.95;25.02;;;7.90;74.10;;;6.97;56.15;99221.78;5011170;28;20405;-73
2022/03/19 09:40:25;;;;;;;36.13;22.40;;;8.00;72.20;;;7.05;56.26;99215.59;5010889;28;20910;-73
2022/03/19 09:42:53;;;;;;;42.75;24.88;;;8.10;72.90;;;7.05;55.32;99207.72;5011268;28;20413;-74
2022/03/19 09:45:23;;;;;;;40.08;23.27;;;8.10;70.70;;;7.14;55.66;99209.25;5011139;28;20511;-73
2022/03/19 09:47:51;;;;;;;44.05;25.88;;;8.20;71.90;;;7.22;54.76;99204.66;5011053;28;20404;-72
2022/03/19 09:50:17;;;;;;;41.92;25.08;;;8.20;70.20;;;7.28;55.24;99205.78;5010741;28;20404;-73
2022/03/19 09:52:44;;;;;;;41.75;26.48;;;8.30;71.20;;;7.34;53.84;99192.66;5011049;28;20469;-73
2022/03/19 09:55:15;;;;;;;37.58;23.08;;;8.40;69.10;;;7.46;54.58;99187.72;5010620;28;20396;-73
2022/03/19 09:57:41;;;;;;;39.80;23.53;;;8.40;70.10;;;7.58;54.53;99180.97;5010782;28;20443;-73
2022/03/19 10:00:08;;;;;;;41.00;24.75;;;8.60;70.20;;;7.70;54.68;99176.00;5010698;28;20408;-73
2022/03/19 10:02:51;;;;;;;39.08;23.48;;;8.60;70.10;;;7.86;54.26;99174.94;5010917;28;20751;-73
2022/03/19 10:10:47;;;;;;;32.83;21.77;;;9.10;68.20;;;8.98;52.25;99146.63;5010330;28;20932;-73
2022/03/19 10:13:13;;;;;;;35.35;22.33;;;9.80;67.80;;;9.81;50.78;99140.09;5009388;28;20413;-73
2022/03/19 10:15:40;;;;;;;36.13;22.38;;;10.70;65.60;;;10.94;48.60;99149.50;5010709;28;20401;-73
2022/03/19 10:18:10;;;;;;;38.67;23.00;;;11.90;62.20;;;11.96;44.81;99146.69;5010479;28;20409;-74
2022/03/19 10:20:37;;;;;;;28.33;18.08;;;13.10;56.70;;;12.89;43.52;99141.25;5010015;28;20401;-73
2022/03/19 10:23:04;;;;;;;37.03;22.77;;;14.00;54.60;;;13.62;42.35;99138.47;5010616;28;20489;-74
2022/03/19 10:25:31;;;;;;;31.08;20.60;;;14.60;53.00;;;14.33;41.34;99133.81;5010656;28;20765;-74
2022/03/19 10:28:01;;;;;;;35.95;23.30;;;15.30;52.10;;;14.91;39.72;99132.94;5010535;28;20897;-73
2022/03/19 10:30:35;;;;;;;32.53;20.67;;;16.00;49.40;;;15.65;38.77;99122.34;5009748;28;20428;-74
2022/03/19 10:33:01;;;;;;;34.20;23.33;;;16.70;48.60;;;16.29;36.40;99120.16;5009337;28;20411;-73
2022/03/19 10:35:31;;;;;;;27.70;18.70;;;17.30;45.50;;;17.03;35.89;99124.91;5010458;28;20463;-74
2022/03/19 10:37:59;;;;;;;34.85;23.55;;;18.10;45.00;;;17.63;34.65;99131.97;5009651;28;20417;-74